sensor_id;sensor_type;location;lat;lon;timestamp;P1;durP1;ratioP1;P2;durP2;ratioP2
13568;SDS011;6856;51.460;7.158;2024-01-16T00:01:30;6.27;;;5.10;;
13568;SDS011;6856;51.460;7.158;2024-01-16T00:04:03;6.47;;;5.23;;
13568;SDS011;6856;51.460;7.158;2024-01-16T00:06:39;6.53;;;5.30;;
13568;SDS011;6856;51.460;7.158;2024-01-16T00:09:17;8.03;;;5.67;;
13568;SDS011;6856;51.460;7.158;2024-01-16T00:11:55;8.50;;;5.77;;
13568;SDS011;6856;51.460;7.158;2024-01-16T00:14:29;5.93;;;5.33;;
13568;SDS011;6856;51.460;7.158;2024-01-16T00:17:03;5.80;;;4.93;;
13568;SDS011;6856;51.460;7.158;2024-01-16T00:19:38;8.97;;;5.00;;
13568;SDS011;6856;51.460;7.158;2024-01-16T00:22:12;6.20;;;5.27;;
13568;SDS011;6856;51.460;7.158;2024-01-16T00:24:47;6.57;;;5.30;;
13568;SDS011;6856;51.460;7.158;2024-01-16T00:27:23;6.43;;;5.00;;
13568;SDS011;6856;51.460;7.158;2024-01-16T00:29:56;6.23;;;4.70;;
13568;SDS011;6856;51.460;7.158;2024-01-16T00:32:30;5.37;;;4.73;;
13568;SDS011;6856;51.460;7.158;2024-01-16T00:35:06;7.50;;;5.40;;
13568;SDS011;6856;51.460;7.158;2024-01-16T00:37:41;8.27;;;5.33;;
13568;SDS011;6856;51.460;7.158;2024-01-16T00:40:15;8.00;;;5.43;;
13568;SDS011;6856;51.460;7.158;2024-01-16T00:42:51;7.03;;;5.07;;
13568;SDS011;6856;51.460;7.158;2024-01-16T00:45:24;5.70;;;4.93;;
13568;SDS011;6856;51.460;7.158;2024-01-16T00:48:02;6.50;;;4.50;;
13568;SDS011;6856;51.460;7.158;2024-01-16T00:50:38;6.10;;;4.60;;
13568;SDS011;6856;51.460;7.158;2024-01-16T00:53:12;6.20;;;5.53;;
13568;SDS011;6856;51.460;7.158;2024-01-16T00:55:45;7.30;;;5.20;;
13568;SDS011;6856;51.460;7.158;2024-01-16T00:58:21;10.03;;;5.30;;
13568;SDS011;6856;51.460;7.158;2024-01-16T01:00:55;8.53;;;5.90;;
13568;SDS011;6856;51.460;7.158;2024-01-16T01:03:29;10.37;;;6.13;;
13568;SDS011;6856;51.460;7.158;2024-01-16T01:06:04;6.50;;;5.03;;
13568;SDS011;6856;51.460;7.158;2024-01-16T01:08:38;6.77;;;4.47;;
13568;SDS011;6856;51.460;7.158;2024-01-16T01:11:12;6.97;;;6.10;;
13568;SDS011;6856;51.460;7.158;2024-01-16T01:13:48;6.83;;;4.97;;
13568;SDS011;6856;51.460;7.158;2024-01-16T01:16:22;5.53;;;4.93;;
13568;SDS011;6856;51.460;7.158;2024-01-16T01:18:56;4.83;;;4.03;;
13568;SDS011;6856;51.460;7.158;2024-01-16T01:21:32;5.17;;;4.53;;
13568;SDS011;6856;51.460;7.158;2024-01-16T01:24:06;6.93;;;4.60;;
13568;SDS011;6856;51.460;7.158;2024-01-16T01:26:42;6.93;;;4.20;;
13568;SDS011;6856;51.460;7.158;2024-01-16T01:29:18;6.53;;;4.57;;
13568;SDS011;6856;51.460;7.158;2024-01-16T01:31:56;4.97;;;4.17;;
13568;SDS011;6856;51.460;7.158;2024-01-16T01:34:32;4.73;;;3.87;;
13568;SDS011;6856;51.460;7.158;2024-01-16T01:37:07;6.67;;;4.10;;
13568;SDS011;6856;51.460;7.158;2024-01-16T01:39:41;4.83;;;4.00;;
13568;SDS011;6856;51.460;7.158;2024-01-16T01:42:16;7.17;;;4.17;;
13568;SDS011;6856;51.460;7.158;2024-01-16T01:44:53;6.27;;;4.30;;
13568;SDS011;6856;51.460;7.158;2024-01-16T01:47:28;5.97;;;3.87;;
13568;SDS011;6856;51.460;7.158;2024-01-16T01:50:07;6.27;;;3.97;;
13568;SDS011;6856;51.460;7.158;2024-01-16T01:52:42;4.23;;;3.47;;
13568;SDS011;6856;51.460;7.158;2024-01-16T01:55:17;5.13;;;3.40;;
13568;SDS011;6856;51.460;7.158;2024-01-16T01:57:51;4.27;;;3.47;;
13568;SDS011;6856;51.460;7.158;2024-01-16T02:00:27;5.77;;;3.93;;
13568;SDS011;6856;51.460;7.158;2024-01-16T02:03:05;6.30;;;4.17;;
13568;SDS011;6856;51.460;7.158;2024-01-16T02:05:39;6.53;;;3.60;;
13568;SDS011;6856;51.460;7.158;2024-01-16T02:08:14;6.10;;;3.70;;
13568;SDS011;6856;51.460;7.158;2024-01-16T02:10:50;5.10;;;3.47;;
13568;SDS011;6856;51.460;7.158;2024-01-16T02:13:24;4.30;;;3.27;;
13568;SDS011;6856;51.460;7.158;2024-01-16T02:15:59;7.30;;;3.57;;
13568;SDS011;6856;51.460;7.158;2024-01-16T02:18:35;7.77;;;3.77;;
13568;SDS011;6856;51.460;7.158;2024-01-16T02:21:10;4.90;;;3.30;;
13568;SDS011;6856;51.460;7.158;2024-01-16T02:23:50;5.60;;;4.30;;
13568;SDS011;6856;51.460;7.158;2024-01-16T02:26:24;4.37;;;3.67;;
13568;SDS011;6856;51.460;7.158;2024-01-16T02:29:00;5.33;;;3.83;;
13568;SDS011;6856;51.460;7.158;2024-01-16T02:31:36;5.60;;;4.00;;
13568;SDS011;6856;51.460;7.158;2024-01-16T02:34:10;4.97;;;3.77;;
13568;SDS011;6856;51.460;7.158;2024-01-16T02:36:45;5.03;;;3.80;;
13568;SDS011;6856;51.460;7.158;2024-01-16T02:39:20;4.83;;;4.27;;
13568;SDS011;6856;51.460;7.158;2024-01-16T02:41:54;5.57;;;4.30;;
13568;SDS011;6856;51.460;7.158;2024-01-16T02:44:28;7.63;;;4.80;;
13568;SDS011;6856;51.460;7.158;2024-01-16T02:47:03;6.50;;;4.30;;
13568;SDS011;6856;51.460;7.158;2024-01-16T02:49:39;6.80;;;4.43;;
13568;SDS011;6856;51.460;7.158;2024-01-16T02:52:13;7.00;;;4.90;;
13568;SDS011;6856;51.460;7.158;2024-01-16T02:54:49;7.57;;;5.00;;
13568;SDS011;6856;51.460;7.158;2024-01-16T02:57:27;6.03;;;4.47;;
13568;SDS011;6856;51.460;7.158;2024-01-16T03:00:01;6.07;;;3.90;;
13568;SDS011;6856;51.460;7.158;2024-01-16T03:02:36;5.07;;;4.03;;
13568;SDS011;6856;51.460;7.158;2024-01-16T03:05:11;4.40;;;4.00;;
13568;SDS011;6856;51.460;7.158;2024-01-16T03:07:46;5.57;;;4.27;;
13568;SDS011;6856;51.460;7.158;2024-01-16T03:10:25;5.57;;;4.40;;
13568;SDS011;6856;51.460;7.158;2024-01-16T03:12:59;7.60;;;4.63;;
13568;SDS011;6856;51.460;7.158;2024-01-16T03:15:35;6.63;;;4.97;;
13568;SDS011;6856;51.460;7.158;2024-01-16T03:18:11;6.00;;;5.40;;
13568;SDS011;6856;51.460;7.158;2024-01-16T03:20:46;5.83;;;5.03;;
13568;SDS011;6856;51.460;7.158;2024-01-16T03:23:23;6.50;;;5.77;;
13568;SDS011;6856;51.460;7.158;2024-01-16T03:25:58;7.73;;;6.97;;
13568;SDS011;6856;51.460;7.158;2024-01-16T03:28:31;7.90;;;6.57;;
13568;SDS011;6856;51.460;7.158;2024-01-16T03:31:05;8.73;;;7.20;;
13568;SDS011;6856;51.460;7.158;2024-01-16T03:33:40;9.30;;;8.40;;
13568;SDS011;6856;51.460;7.158;2024-01-16T03:36:15;10.53;;;9.50;;
13568;SDS011;6856;51.460;7.158;2024-01-16T03:38:49;11.63;;;10.30;;
13568;SDS011;6856;51.460;7.158;2024-01-16T03:41:24;12.03;;;10.83;;
13568;SDS011;6856;51.460;7.158;2024-01-16T03:43:58;12.03;;;10.73;;
13568;SDS011;6856;51.460;7.158;2024-01-16T03:46:32;13.03;;;11.67;;
13568;SDS011;6856;51.460;7.158;2024-01-16T03:49:05;12.90;;;11.13;;
13568;SDS011;6856;51.460;7.158;2024-01-16T03:51:40;12.87;;;11.50;;
13568;SDS011;6856;51.460;7.158;2024-01-16T03:54:17;12.50;;;11.30;;
13568;SDS011;6856;51.460;7.158;2024-01-16T03:56:53;12.37;;;11.17;;
13568;SDS011;6856;51.460;7.158;2024-01-16T03:59:27;12.43;;;11.23;;
13568;SDS011;6856;51.460;7.158;2024-01-16T04:02:00;11.90;;;10.70;;
13568;SDS011;6856;51.460;7.158;2024-01-16T04:04:35;12.23;;;10.90;;
13568;SDS011;6856;51.460;7.158;2024-01-16T04:07:08;13.30;;;12.00;;
13568;SDS011;6856;51.460;7.158;2024-01-16T04:09:42;12.83;;;11.17;;
13568;SDS011;6856;51.460;7.158;2024-01-16T04:12:17;12.70;;;11.40;;
13568;SDS011;6856;51.460;7.158;2024-01-16T04:14:53;11.10;;;9.93;;
13568;SDS011;6856;51.460;7.158;2024-01-16T04:17:26;10.23;;;9.23;;
13568;SDS011;6856;51.460;7.158;2024-01-16T04:20:00;9.70;;;8.70;;
13568;SDS011;6856;51.460;7.158;2024-01-16T04:22:33;10.37;;;9.37;;
13568;SDS011;6856;51.460;7.158;2024-01-16T04:25:08;10.00;;;9.00;;
13568;SDS011;6856;51.460;7.158;2024-01-16T04:27:43;10.07;;;8.37;;
13568;SDS011;6856;51.460;7.158;2024-01-16T04:30:19;9.57;;;8.60;;
13568;SDS011;6856;51.460;7.158;2024-01-16T04:32:53;10.23;;;9.17;;
13568;SDS011;6856;51.460;7.158;2024-01-16T04:35:26;9.27;;;8.37;;
13568;SDS011;6856;51.460;7.158;2024-01-16T04:38:01;9.97;;;8.80;;
13568;SDS011;6856;51.460;7.158;2024-01-16T04:40:35;9.33;;;8.43;;
13568;SDS011;6856;51.460;7.158;2024-01-16T04:43:11;9.57;;;8.13;;
13568;SDS011;6856;51.460;7.158;2024-01-16T04:45:45;8.97;;;8.07;;
13568;SDS011;6856;51.460;7.158;2024-01-16T04:48:19;10.73;;;8.10;;
13568;SDS011;6856;51.460;7.158;2024-01-16T04:50:53;10.37;;;7.60;;
13568;SDS011;6856;51.460;7.158;2024-01-16T04:53:27;8.53;;;7.63;;
13568;SDS011;6856;51.460;7.158;2024-01-16T04:56:01;10.10;;;7.70;;
13568;SDS011;6856;51.460;7.158;2024-01-16T04:58:37;8.43;;;7.47;;
13568;SDS011;6856;51.460;7.158;2024-01-16T05:01:11;7.90;;;7.10;;
13568;SDS011;6856;51.460;7.158;2024-01-16T05:03:45;8.53;;;7.30;;
13568;SDS011;6856;51.460;7.158;2024-01-16T05:06:19;6.40;;;5.70;;
13568;SDS011;6856;51.460;7.158;2024-01-16T05:08:54;8.43;;;6.60;;
13568;SDS011;6856;51.460;7.158;2024-01-16T05:11:28;8.03;;;6.70;;
13568;SDS011;6856;51.460;7.158;2024-01-16T05:14:03;7.23;;;6.47;;
13568;SDS011;6856;51.460;7.158;2024-01-16T05:16:37;7.10;;;6.23;;
13568;SDS011;6856;51.460;7.158;2024-01-16T05:19:11;8.63;;;6.43;;
13568;SDS011;6856;51.460;7.158;2024-01-16T05:21:47;6.93;;;6.23;;
13568;SDS011;6856;51.460;7.158;2024-01-16T05:24:23;8.17;;;6.63;;
13568;SDS011;6856;51.460;7.158;2024-01-16T05:26:57;6.73;;;6.03;;
13568;SDS011;6856;51.460;7.158;2024-01-16T05:29:33;6.40;;;5.27;;
13568;SDS011;6856;51.460;7.158;2024-01-16T05:32:13;6.83;;;5.40;;
13568;SDS011;6856;51.460;7.158;2024-01-16T05:34:48;6.47;;;5.20;;
13568;SDS011;6856;51.460;7.158;2024-01-16T05:37:22;6.27;;;5.33;;
13568;SDS011;6856;51.460;7.158;2024-01-16T05:39:56;5.60;;;4.50;;
13568;SDS011;6856;51.460;7.158;2024-01-16T05:42:30;5.90;;;4.53;;
13568;SDS011;6856;51.460;7.158;2024-01-16T05:45:08;5.17;;;4.27;;
13568;SDS011;6856;51.460;7.158;2024-01-16T05:47:42;5.63;;;4.40;;
13568;SDS011;6856;51.460;7.158;2024-01-16T05:50:16;4.90;;;4.37;;
13568;SDS011;6856;51.460;7.158;2024-01-16T05:52:51;5.03;;;4.10;;
13568;SDS011;6856;51.460;7.158;2024-01-16T05:55:25;6.13;;;4.60;;
13568;SDS011;6856;51.460;7.158;2024-01-16T05:58:00;5.07;;;4.20;;
13568;SDS011;6856;51.460;7.158;2024-01-16T06:00:38;5.73;;;4.37;;
13568;SDS011;6856;51.460;7.158;2024-01-16T06:03:12;4.27;;;3.87;;
13568;SDS011;6856;51.460;7.158;2024-01-16T06:05:46;4.17;;;3.30;;
13568;SDS011;6856;51.460;7.158;2024-01-16T06:08:20;4.40;;;3.97;;
13568;SDS011;6856;51.460;7.158;2024-01-16T06:10:53;5.30;;;3.93;;
13568;SDS011;6856;51.460;7.158;2024-01-16T06:13:27;4.63;;;4.13;;
13568;SDS011;6856;51.460;7.158;2024-01-16T06:16:04;4.60;;;3.87;;
13568;SDS011;6856;51.460;7.158;2024-01-16T06:18:39;5.67;;;4.67;;
13568;SDS011;6856;51.460;7.158;2024-01-16T06:21:13;5.87;;;5.03;;
13568;SDS011;6856;51.460;7.158;2024-01-16T06:23:49;7.27;;;5.63;;
13568;SDS011;6856;51.460;7.158;2024-01-16T06:26:23;7.33;;;6.07;;
13568;SDS011;6856;51.460;7.158;2024-01-16T06:28:58;7.47;;;6.43;;
13568;SDS011;6856;51.460;7.158;2024-01-16T06:31:35;9.90;;;7.77;;
13568;SDS011;6856;51.460;7.158;2024-01-16T06:34:10;10.03;;;8.43;;
13568;SDS011;6856;51.460;7.158;2024-01-16T06:36:44;10.67;;;9.00;;
13568;SDS011;6856;51.460;7.158;2024-01-16T06:39:18;10.80;;;9.37;;
13568;SDS011;6856;51.460;7.158;2024-01-16T06:41:52;11.30;;;10.13;;
13568;SDS011;6856;51.460;7.158;2024-01-16T06:44:27;11.00;;;9.80;;
13568;SDS011;6856;51.460;7.158;2024-01-16T06:47:04;12.53;;;11.23;;
13568;SDS011;6856;51.460;7.158;2024-01-16T06:49:37;11.70;;;10.33;;
13568;SDS011;6856;51.460;7.158;2024-01-16T06:52:12;13.07;;;11.73;;
13568;SDS011;6856;51.460;7.158;2024-01-16T06:54:46;14.80;;;12.27;;
13568;SDS011;6856;51.460;7.158;2024-01-16T06:57:20;13.17;;;11.77;;
13568;SDS011;6856;51.460;7.158;2024-01-16T06:59:54;14.83;;;12.13;;
13568;SDS011;6856;51.460;7.158;2024-01-16T07:02:33;11.87;;;10.57;;
13568;SDS011;6856;51.460;7.158;2024-01-16T07:05:07;12.03;;;10.63;;
13568;SDS011;6856;51.460;7.158;2024-01-16T07:07:42;11.87;;;10.60;;
13568;SDS011;6856;51.460;7.158;2024-01-16T07:10:18;11.93;;;10.73;;
13568;SDS011;6856;51.460;7.158;2024-01-16T07:12:53;11.23;;;9.93;;
13568;SDS011;6856;51.460;7.158;2024-01-16T07:15:28;11.40;;;10.17;;
13568;SDS011;6856;51.460;7.158;2024-01-16T07:18:03;11.53;;;9.80;;
13568;SDS011;6856;51.460;7.158;2024-01-16T07:20:37;10.03;;;8.87;;
13568;SDS011;6856;51.460;7.158;2024-01-16T07:23:11;14.07;;;8.50;;
13568;SDS011;6856;51.460;7.158;2024-01-16T07:25:45;8.73;;;7.87;;
13568;SDS011;6856;51.460;7.158;2024-01-16T07:28:21;8.67;;;7.67;;
13568;SDS011;6856;51.460;7.158;2024-01-16T07:30:55;12.80;;;7.77;;
13568;SDS011;6856;51.460;7.158;2024-01-16T07:33:31;8.87;;;6.67;;
13568;SDS011;6856;51.460;7.158;2024-01-16T07:36:05;10.77;;;6.40;;
13568;SDS011;6856;51.460;7.158;2024-01-16T07:38:41;9.77;;;6.30;;
13568;SDS011;6856;51.460;7.158;2024-01-16T07:41:16;8.10;;;5.67;;
13568;SDS011;6856;51.460;7.158;2024-01-16T07:43:50;8.90;;;5.70;;
13568;SDS011;6856;51.460;7.158;2024-01-16T07:46:24;7.47;;;5.87;;
13568;SDS011;6856;51.460;7.158;2024-01-16T07:49:02;8.83;;;5.40;;
13568;SDS011;6856;51.460;7.158;2024-01-16T07:51:37;7.30;;;4.83;;
13568;SDS011;6856;51.460;7.158;2024-01-16T07:54:11;9.73;;;5.33;;
13568;SDS011;6856;51.460;7.158;2024-01-16T07:56:45;8.77;;;5.43;;
13568;SDS011;6856;51.460;7.158;2024-01-16T07:59:19;7.63;;;5.40;;
13568;SDS011;6856;51.460;7.158;2024-01-16T08:01:53;7.53;;;5.20;;
13568;SDS011;6856;51.460;7.158;2024-01-16T08:04:31;6.63;;;4.43;;
13568;SDS011;6856;51.460;7.158;2024-01-16T08:07:06;7.57;;;5.20;;
13568;SDS011;6856;51.460;7.158;2024-01-16T08:09:41;9.07;;;4.50;;
13568;SDS011;6856;51.460;7.158;2024-01-16T08:12:15;8.40;;;4.43;;
13568;SDS011;6856;51.460;7.158;2024-01-16T08:14:51;7.27;;;4.30;;
13568;SDS011;6856;51.460;7.158;2024-01-16T08:17:25;7.77;;;4.70;;
13568;SDS011;6856;51.460;7.158;2024-01-16T08:20:01;6.40;;;4.03;;
13568;SDS011;6856;51.460;7.158;2024-01-16T08:22:35;6.83;;;4.13;;
13568;SDS011;6856;51.460;7.158;2024-01-16T08:25:12;6.03;;;3.67;;
13568;SDS011;6856;51.460;7.158;2024-01-16T08:27:46;7.70;;;3.93;;
13568;SDS011;6856;51.460;7.158;2024-01-16T08:30:19;5.90;;;3.43;;
13568;SDS011;6856;51.460;7.158;2024-01-16T08:32:53;5.90;;;3.43;;
13568;SDS011;6856;51.460;7.158;2024-01-16T08:35:30;6.17;;;3.60;;
13568;SDS011;6856;51.460;7.158;2024-01-16T08:38:04;4.83;;;3.37;;
13568;SDS011;6856;51.460;7.158;2024-01-16T08:40:38;6.27;;;3.40;;
13568;SDS011;6856;51.460;7.158;2024-01-16T08:43:12;6.57;;;3.20;;
13568;SDS011;6856;51.460;7.158;2024-01-16T08:45:46;5.33;;;3.13;;
13568;SDS011;6856;51.460;7.158;2024-01-16T08:48:23;5.20;;;3.20;;
13568;SDS011;6856;51.460;7.158;2024-01-16T08:50:59;4.60;;;2.67;;
13568;SDS011;6856;51.460;7.158;2024-01-16T08:53:33;8.97;;;3.70;;
13568;SDS011;6856;51.460;7.158;2024-01-16T08:56:07;4.33;;;3.10;;
13568;SDS011;6856;51.460;7.158;2024-01-16T08:58:44;7.33;;;3.17;;
13568;SDS011;6856;51.460;7.158;2024-01-16T09:01:18;6.47;;;3.23;;
13568;SDS011;6856;51.460;7.158;2024-01-16T09:03:52;6.57;;;3.00;;
13568;SDS011;6856;51.460;7.158;2024-01-16T09:06:28;5.07;;;2.90;;
13568;SDS011;6856;51.460;7.158;2024-01-16T09:09:02;5.00;;;2.73;;
13568;SDS011;6856;51.460;7.158;2024-01-16T09:11:37;6.83;;;2.87;;
13568;SDS011;6856;51.460;7.158;2024-01-16T09:14:12;9.30;;;3.30;;
13568;SDS011;6856;51.460;7.158;2024-01-16T09:16:49;4.80;;;2.63;;
13568;SDS011;6856;51.460;7.158;2024-01-16T09:19:27;6.63;;;2.80;;
13568;SDS011;6856;51.460;7.158;2024-01-16T09:22:03;6.30;;;2.73;;
13568;SDS011;6856;51.460;7.158;2024-01-16T09:24:41;6.73;;;2.93;;
13568;SDS011;6856;51.460;7.158;2024-01-16T09:27:15;6.17;;;2.77;;
13568;SDS011;6856;51.460;7.158;2024-01-16T09:29:51;6.70;;;3.07;;
13568;SDS011;6856;51.460;7.158;2024-01-16T09:32:26;5.77;;;2.70;;
13568;SDS011;6856;51.460;7.158;2024-01-16T09:35:02;7.53;;;3.00;;
13568;SDS011;6856;51.460;7.158;2024-01-16T09:37:41;6.13;;;2.87;;
13568;SDS011;6856;51.460;7.158;2024-01-16T09:40:15;6.77;;;3.17;;
13568;SDS011;6856;51.460;7.158;2024-01-16T09:42:48;5.37;;;2.87;;
13568;SDS011;6856;51.460;7.158;2024-01-16T09:45:23;5.87;;;2.97;;
13568;SDS011;6856;51.460;7.158;2024-01-16T09:47:59;6.60;;;2.90;;
13568;SDS011;6856;51.460;7.158;2024-01-16T09:50:35;7.50;;;3.27;;
13568;SDS011;6856;51.460;7.158;2024-01-16T09:53:11;6.10;;;3.20;;
13568;SDS011;6856;51.460;7.158;2024-01-16T09:55:46;5.30;;;2.97;;
13568;SDS011;6856;51.460;7.158;2024-01-16T09:58:23;6.47;;;2.97;;
13568;SDS011;6856;51.460;7.158;2024-01-16T10:00:57;5.37;;;2.73;;
13568;SDS011;6856;51.460;7.158;2024-01-16T10:03:32;8.50;;;4.67;;
13568;SDS011;6856;51.460;7.158;2024-01-16T10:06:08;7.93;;;4.27;;
13568;SDS011;6856;51.460;7.158;2024-01-16T10:08:46;9.17;;;4.10;;
13568;SDS011;6856;51.460;7.158;2024-01-16T10:11:22;6.27;;;3.20;;
13568;SDS011;6856;51.460;7.158;2024-01-16T10:13:58;6.43;;;3.70;;
13568;SDS011;6856;51.460;7.158;2024-01-16T10:19:31;5.80;;;2.90;;
13568;SDS011;6856;51.460;7.158;2024-01-16T10:22:19;5.83;;;3.20;;
13568;SDS011;6856;51.460;7.158;2024-01-16T10:25:09;8.10;;;3.77;;
13568;SDS011;6856;51.460;7.158;2024-01-16T10:27:48;4.23;;;2.67;;
13568;SDS011;6856;51.460;7.158;2024-01-16T10:30:40;4.53;;;2.90;;
13568;SDS011;6856;51.460;7.158;2024-01-16T10:33:16;4.80;;;3.23;;
13568;SDS011;6856;51.460;7.158;2024-01-16T10:35:54;5.47;;;3.50;;
13568;SDS011;6856;51.460;7.158;2024-01-16T10:38:43;6.13;;;3.07;;
13568;SDS011;6856;51.460;7.158;2024-01-16T10:41:20;6.43;;;3.00;;
13568;SDS011;6856;51.460;7.158;2024-01-16T10:44:03;5.73;;;3.40;;
13568;SDS011;6856;51.460;7.158;2024-01-16T10:46:39;5.10;;;3.13;;
13568;SDS011;6856;51.460;7.158;2024-01-16T10:49:13;5.27;;;3.00;;
13568;SDS011;6856;51.460;7.158;2024-01-16T10:51:47;5.40;;;2.83;;
13568;SDS011;6856;51.460;7.158;2024-01-16T10:54:24;5.67;;;2.87;;
13568;SDS011;6856;51.460;7.158;2024-01-16T10:57:00;6.30;;;3.00;;
13568;SDS011;6856;51.460;7.158;2024-01-16T10:59:36;5.03;;;2.70;;
13568;SDS011;6856;51.460;7.158;2024-01-16T11:02:19;5.47;;;2.60;;
13568;SDS011;6856;51.460;7.158;2024-01-16T11:05:01;6.90;;;2.70;;
13568;SDS011;6856;51.460;7.158;2024-01-16T11:07:37;6.50;;;3.40;;
13568;SDS011;6856;51.460;7.158;2024-01-16T11:10:14;4.00;;;2.60;;
13568;SDS011;6856;51.460;7.158;2024-01-16T11:12:55;7.40;;;3.20;;
13568;SDS011;6856;51.460;7.158;2024-01-16T11:15:34;6.60;;;3.23;;
13568;SDS011;6856;51.460;7.158;2024-01-16T11:18:11;7.77;;;3.00;;
13568;SDS011;6856;51.460;7.158;2024-01-16T11:20:49;5.27;;;2.80;;
13568;SDS011;6856;51.460;7.158;2024-01-16T11:23:38;4.20;;;2.90;;
13568;SDS011;6856;51.460;7.158;2024-01-16T11:26:24;6.70;;;3.47;;
13568;SDS011;6856;51.460;7.158;2024-01-16T11:29:33;4.70;;;3.20;;
13568;SDS011;6856;51.460;7.158;2024-01-16T11:32:12;4.10;;;2.70;;
13568;SDS011;6856;51.460;7.158;2024-01-16T11:35:10;4.97;;;2.70;;
13568;SDS011;6856;51.460;7.158;2024-01-16T11:37:44;5.33;;;3.27;;
13568;SDS011;6856;51.460;7.158;2024-01-16T11:40:20;5.57;;;3.63;;
13568;SDS011;6856;51.460;7.158;2024-01-16T11:42:55;5.03;;;3.37;;
13568;SDS011;6856;51.460;7.158;2024-01-16T11:45:49;5.43;;;2.97;;
13568;SDS011;6856;51.460;7.158;2024-01-16T11:48:23;4.23;;;3.00;;
13568;SDS011;6856;51.460;7.158;2024-01-16T11:51:21;6.13;;;3.10;;
13568;SDS011;6856;51.460;7.158;2024-01-16T11:53:58;5.63;;;3.40;;
13568;SDS011;6856;51.460;7.158;2024-01-16T11:56:40;5.23;;;3.43;;
13568;SDS011;6856;51.460;7.158;2024-01-16T12:00:00;5.23;;;3.10;;
13568;SDS011;6856;51.460;7.158;2024-01-16T12:02:55;6.83;;;3.47;;
13568;SDS011;6856;51.460;7.158;2024-01-16T12:05:30;5.33;;;3.40;;
13568;SDS011;6856;51.460;7.158;2024-01-16T12:08:05;5.57;;;3.10;;
13568;SDS011;6856;51.460;7.158;2024-01-16T12:10:45;6.57;;;3.23;;
13568;SDS011;6856;51.460;7.158;2024-01-16T12:13:20;5.23;;;3.27;;
13568;SDS011;6856;51.460;7.158;2024-01-16T12:15:59;6.33;;;3.30;;
13568;SDS011;6856;51.460;7.158;2024-01-16T12:18:38;6.13;;;3.43;;
13568;SDS011;6856;51.460;7.158;2024-01-16T12:21:17;6.50;;;3.60;;
13568;SDS011;6856;51.460;7.158;2024-01-16T12:23:51;7.00;;;3.50;;
13568;SDS011;6856;51.460;7.158;2024-01-16T12:26:41;6.07;;;3.27;;
13568;SDS011;6856;51.460;7.158;2024-01-16T12:29:17;4.47;;;2.57;;
13568;SDS011;6856;51.460;7.158;2024-01-16T12:31:50;6.80;;;3.50;;
13568;SDS011;6856;51.460;7.158;2024-01-16T12:34:54;4.57;;;2.90;;
13568;SDS011;6856;51.460;7.158;2024-01-16T12:37:28;5.43;;;3.10;;
13568;SDS011;6856;51.460;7.158;2024-01-16T12:40:02;4.97;;;3.40;;
13568;SDS011;6856;51.460;7.158;2024-01-16T12:42:38;6.37;;;3.43;;
13568;SDS011;6856;51.460;7.158;2024-01-16T12:45:15;5.67;;;3.47;;
13568;SDS011;6856;51.460;7.158;2024-01-16T12:47:51;5.47;;;3.10;;
13568;SDS011;6856;51.460;7.158;2024-01-16T12:50:34;4.70;;;2.90;;
13568;SDS011;6856;51.460;7.158;2024-01-16T12:53:09;6.10;;;3.40;;
13568;SDS011;6856;51.460;7.158;2024-01-16T12:55:44;5.83;;;3.27;;
13568;SDS011;6856;51.460;7.158;2024-01-16T12:58:19;6.70;;;3.27;;
13568;SDS011;6856;51.460;7.158;2024-01-16T13:00:55;6.10;;;3.37;;
13568;SDS011;6856;51.460;7.158;2024-01-16T13:03:30;4.57;;;3.10;;
13568;SDS011;6856;51.460;7.158;2024-01-16T13:06:06;6.23;;;3.47;;
13568;SDS011;6856;51.460;7.158;2024-01-16T13:08:39;4.83;;;2.97;;
13568;SDS011;6856;51.460;7.158;2024-01-16T13:11:14;6.47;;;3.43;;
13568;SDS011;6856;51.460;7.158;2024-01-16T13:14:09;5.23;;;3.20;;
13568;SDS011;6856;51.460;7.158;2024-01-16T13:16:43;6.27;;;3.93;;
13568;SDS011;6856;51.460;7.158;2024-01-16T13:19:17;5.73;;;3.63;;
13568;SDS011;6856;51.460;7.158;2024-01-16T13:21:54;5.63;;;3.10;;
13568;SDS011;6856;51.460;7.158;2024-01-16T13:24:35;6.17;;;3.53;;
13568;SDS011;6856;51.460;7.158;2024-01-16T13:27:13;6.47;;;3.73;;
13568;SDS011;6856;51.460;7.158;2024-01-16T13:29:48;9.10;;;4.00;;
13568;SDS011;6856;51.460;7.158;2024-01-16T13:32:22;8.07;;;4.63;;
13568;SDS011;6856;51.460;7.158;2024-01-16T13:34:58;7.00;;;4.63;;
13568;SDS011;6856;51.460;7.158;2024-01-16T13:37:34;15.47;;;9.27;;
13568;SDS011;6856;51.460;7.158;2024-01-16T13:40:09;8.00;;;5.70;;
13568;SDS011;6856;51.460;7.158;2024-01-16T13:42:51;7.27;;;4.77;;
13568;SDS011;6856;51.460;7.158;2024-01-16T13:45:26;5.73;;;3.93;;
13568;SDS011;6856;51.460;7.158;2024-01-16T13:48:01;6.37;;;3.90;;
13568;SDS011;6856;51.460;7.158;2024-01-16T13:50:36;5.27;;;3.77;;
13568;SDS011;6856;51.460;7.158;2024-01-16T13:53:11;5.73;;;3.27;;
13568;SDS011;6856;51.460;7.158;2024-01-16T13:55:45;6.07;;;3.83;;
13568;SDS011;6856;51.460;7.158;2024-01-16T13:58:20;9.00;;;3.50;;
13568;SDS011;6856;51.460;7.158;2024-01-16T14:00:54;6.47;;;3.83;;
13568;SDS011;6856;51.460;7.158;2024-01-16T14:03:29;5.83;;;3.47;;
13568;SDS011;6856;51.460;7.158;2024-01-16T14:06:02;6.77;;;4.00;;
13568;SDS011;6856;51.460;7.158;2024-01-16T14:08:40;9.67;;;3.73;;
13568;SDS011;6856;51.460;7.158;2024-01-16T14:11:14;7.40;;;3.67;;
13568;SDS011;6856;51.460;7.158;2024-01-16T14:13:48;4.90;;;3.80;;
13568;SDS011;6856;51.460;7.158;2024-01-16T14:16:27;5.27;;;3.60;;
13568;SDS011;6856;51.460;7.158;2024-01-16T14:19:21;8.97;;;3.47;;
13568;SDS011;6856;51.460;7.158;2024-01-16T14:21:58;5.90;;;3.67;;
13568;SDS011;6856;51.460;7.158;2024-01-16T14:24:33;6.80;;;4.27;;
13568;SDS011;6856;51.460;7.158;2024-01-16T14:27:09;7.00;;;3.50;;
13568;SDS011;6856;51.460;7.158;2024-01-16T14:29:43;5.63;;;3.77;;
13568;SDS011;6856;51.460;7.158;2024-01-16T14:32:17;6.10;;;3.70;;
13568;SDS011;6856;51.460;7.158;2024-01-16T14:34:52;6.03;;;3.90;;
13568;SDS011;6856;51.460;7.158;2024-01-16T14:37:26;5.60;;;3.70;;
13568;SDS011;6856;51.460;7.158;2024-01-16T14:40:02;6.83;;;3.53;;
13568;SDS011;6856;51.460;7.158;2024-01-16T14:42:44;6.53;;;3.80;;
13568;SDS011;6856;51.460;7.158;2024-01-16T14:45:19;5.93;;;3.50;;
13568;SDS011;6856;51.460;7.158;2024-01-16T14:47:54;5.90;;;3.97;;
13568;SDS011;6856;51.460;7.158;2024-01-16T14:50:29;6.40;;;4.27;;
13568;SDS011;6856;51.460;7.158;2024-01-16T14:53:04;5.47;;;3.73;;
13568;SDS011;6856;51.460;7.158;2024-01-16T14:55:39;7.23;;;3.93;;
13568;SDS011;6856;51.460;7.158;2024-01-16T14:58:13;5.73;;;3.57;;
13568;SDS011;6856;51.460;7.158;2024-01-16T15:00:50;5.90;;;3.90;;
13568;SDS011;6856;51.460;7.158;2024-01-16T15:03:25;5.27;;;3.80;;
13568;SDS011;6856;51.460;7.158;2024-01-16T15:05:59;6.73;;;3.97;;
13568;SDS011;6856;51.460;7.158;2024-01-16T15:08:33;5.83;;;4.00;;
13568;SDS011;6856;51.460;7.158;2024-01-16T15:11:09;7.13;;;4.00;;
13568;SDS011;6856;51.460;7.158;2024-01-16T15:13:44;5.87;;;3.73;;
13568;SDS011;6856;51.460;7.158;2024-01-16T15:16:20;4.90;;;3.83;;
13568;SDS011;6856;51.460;7.158;2024-01-16T15:18:54;8.33;;;3.97;;
13568;SDS011;6856;51.460;7.158;2024-01-16T15:21:28;5.83;;;3.70;;
13568;SDS011;6856;51.460;7.158;2024-01-16T15:24:03;6.63;;;4.17;;
13568;SDS011;6856;51.460;7.158;2024-01-16T15:26:39;6.27;;;4.10;;
13568;SDS011;6856;51.460;7.158;2024-01-16T15:29:13;5.27;;;4.30;;
13568;SDS011;6856;51.460;7.158;2024-01-16T15:31:46;5.83;;;3.93;;
13568;SDS011;6856;51.460;7.158;2024-01-16T15:34:21;6.70;;;4.17;;
13568;SDS011;6856;51.460;7.158;2024-01-16T15:36:55;9.13;;;3.53;;
13568;SDS011;6856;51.460;7.158;2024-01-16T15:39:30;6.37;;;3.83;;
13568;SDS011;6856;51.460;7.158;2024-01-16T15:42:05;6.83;;;4.07;;
13568;SDS011;6856;51.460;7.158;2024-01-16T15:44:40;6.70;;;4.20;;
13568;SDS011;6856;51.460;7.158;2024-01-16T15:47:13;9.70;;;4.80;;
13568;SDS011;6856;51.460;7.158;2024-01-16T15:49:47;6.17;;;3.97;;
13568;SDS011;6856;51.460;7.158;2024-01-16T15:52:21;6.03;;;4.10;;
13568;SDS011;6856;51.460;7.158;2024-01-16T15:54:55;5.77;;;3.80;;